UAL1844 KEWR-KSFO
Flight info
| Callsign | UAL1844 |
|---|---|
| Flight time | 5h 16m |
| Altitude | 36000 |
| Route | NEWEL J60 DANNR RAV J64 FWA EDENS LNK HCT/N0471F380 VOAXA Q136 RUMPS OAL INYOE DYAMD5 |
| Aircraft | B77W/H-SDE1E2E3FGHIJ2J3J4J5M1RWXY/LB1D1 |
Departure
| Time | 2026-04-21 22:22 |
|---|---|
| Airport | Newark Liberty International Airport (KEWR) |
Arrival
| Time | 2026-04-22 03:39 |
|---|---|
| Airport | San Francisco International Airport (KSFO) |
| Time | Latitude | Longitude | Altitude | Speed | Heading |
|---|---|---|---|---|---|
| 2026-04-21 21:41 | 40.69787 | -74.17567 | 20 ft | 0 kts | 140° |
| 2026-04-21 22:06 | 40.69790 | -74.17570 | 20 ft | 2 kts | 140° |
| 2026-04-21 22:07 | 40.69802 | -74.17584 | 20 ft | 2 kts | 140° |
| 2026-04-21 22:07 | 40.69812 | -74.17594 | 20 ft | 0 kts | 140° |
| 2026-04-21 22:07 | 40.69820 | -74.17605 | 20 ft | 2 kts | 125° |
| 2026-04-21 22:07 | 40.69826 | -74.17622 | 20 ft | 2 kts | 96° |
| 2026-04-21 22:08 | 40.69825 | -74.17641 | 20 ft | 2 kts | 72° |
| 2026-04-21 22:08 | 40.69819 | -74.17659 | 20 ft | 2 kts | 48° |
| 2026-04-21 22:08 | 40.69814 | -74.17665 | 20 ft | 1 kts | 39° |
| 2026-04-21 22:08 | 40.69812 | -74.17667 | 20 ft | 0 kts | 40° |
| 2026-04-21 22:16 | 40.69828 | -74.17650 | 20 ft | 6 kts | 40° |
| 2026-04-21 22:16 | 40.69874 | -74.17596 | 20 ft | 9 kts | 45° |
| 2026-04-21 22:16 | 40.69931 | -74.17523 | 20 ft | 12 kts | 44° |
| 2026-04-21 22:16 | 40.69989 | -74.17447 | 20 ft | 11 kts | 46° |
| 2026-04-21 22:17 | 40.70049 | -74.17383 | 20 ft | 12 kts | 21° |
| 2026-04-21 22:17 | 40.70113 | -74.17303 | 20 ft | 14 kts | 78° |
| 2026-04-21 22:17 | 40.70112 | -74.17157 | 20 ft | 17 kts | 95° |
| 2026-04-21 22:17 | 40.70101 | -74.16997 | 20 ft | 16 kts | 95° |
| 2026-04-21 22:18 | 40.70091 | -74.16851 | 20 ft | 15 kts | 95° |
| 2026-04-21 22:18 | 40.70083 | -74.16717 | 20 ft | 14 kts | 95° |
| 2026-04-21 22:18 | 40.70074 | -74.16593 | 20 ft | 13 kts | 95° |
| 2026-04-21 22:18 | 40.70070 | -74.16520 | 20 ft | 2 kts | 95° |
| 2026-04-21 22:19 | 40.70069 | -74.16508 | 20 ft | 0 kts | 95° |
| 2026-04-21 22:20 | 40.70067 | -74.16484 | 20 ft | 6 kts | 95° |
| 2026-04-21 22:21 | 40.70052 | -74.16406 | 20 ft | 9 kts | 127° |
| 2026-04-21 22:21 | 40.69980 | -74.16399 | 20 ft | 12 kts | 203° |
| 2026-04-21 22:21 | 40.69796 | -74.16514 | 20 ft | 65 kts | 206° |
| 2026-04-21 22:21 | 40.69088 | -74.16966 | 20 ft | 158 kts | 205° |
| 2026-04-21 22:22 | 40.67950 | -74.17688 | 547 ft | 198 kts | 204° |
| 2026-04-21 22:22 | 40.66681 | -74.18285 | 1420 ft | 200 kts | 192° |
| 2026-04-21 22:22 | 40.65265 | -74.18637 | 2298 ft | 212 kts | 190° |
| 2026-04-21 22:22 | 40.63718 | -74.18973 | 2833 ft | 238 kts | 190° |
| 2026-04-21 22:23 | 40.62049 | -74.19389 | 2875 ft | 247 kts | 201° |
| 2026-04-21 22:23 | 40.60603 | -74.20612 | 2876 ft | 249 kts | 228° |
| 2026-04-21 22:23 | 40.59779 | -74.22578 | 2869 ft | 250 kts | 256° |
| 2026-04-21 22:23 | 40.59852 | -74.24815 | 3216 ft | 252 kts | 288° |
| 2026-04-21 22:24 | 40.60615 | -74.26906 | 3828 ft | 254 kts | 297° |
| 2026-04-21 22:24 | 40.61465 | -74.28934 | 4445 ft | 253 kts | 298° |
| 2026-04-21 22:24 | 40.62306 | -74.30951 | 5052 ft | 253 kts | 298° |
| 2026-04-21 22:24 | 40.63141 | -74.32974 | 5660 ft | 254 kts | 298° |
| 2026-04-21 22:25 | 40.63972 | -74.35007 | 6271 ft | 254 kts | 298° |
| 2026-04-21 22:25 | 40.64797 | -74.37045 | 6882 ft | 253 kts | 298° |
| 2026-04-21 22:25 | 40.65613 | -74.39092 | 7432 ft | 252 kts | 298° |
| 2026-04-21 22:25 | 40.66413 | -74.41136 | 7935 ft | 251 kts | 298° |
| 2026-04-21 22:26 | 40.67192 | -74.43164 | 8435 ft | 250 kts | 298° |
| 2026-04-21 22:26 | 40.67956 | -74.45195 | 8928 ft | 248 kts | 298° |
| 2026-04-21 22:26 | 40.68711 | -74.47220 | 9424 ft | 247 kts | 298° |
| 2026-04-21 22:26 | 40.69450 | -74.49243 | 9877 ft | 248 kts | 298° |
| 2026-04-21 22:27 | 40.70190 | -74.51304 | 9969 ft | 247 kts | 298° |
| 2026-04-21 22:27 | 40.70905 | -74.53328 | 10296 ft | 245 kts | 297° |
| 2026-04-21 22:27 | 40.71608 | -74.55399 | 10708 ft | 248 kts | 297° |
| 2026-04-21 22:27 | 40.72358 | -74.57614 | 11164 ft | 279 kts | 297° |
| 2026-04-21 22:28 | 40.73170 | -74.60014 | 11613 ft | 294 kts | 297° |
| 2026-04-21 22:28 | 40.73999 | -74.62473 | 12044 ft | 297 kts | 297° |
| 2026-04-21 22:28 | 40.74848 | -74.64996 | 12464 ft | 301 kts | 297° |
| 2026-04-21 22:28 | 40.75694 | -74.67512 | 12895 ft | 302 kts | 296° |
| 2026-04-21 22:29 | 40.76547 | -74.70053 | 13345 ft | 304 kts | 296° |
| 2026-04-21 22:29 | 40.77407 | -74.72615 | 13770 ft | 307 kts | 296° |
| 2026-04-21 22:29 | 40.78264 | -74.75173 | 14239 ft | 308 kts | 296° |
| 2026-04-21 22:29 | 40.79133 | -74.77769 | 14665 ft | 310 kts | 296° |
| 2026-04-21 22:30 | 40.80003 | -74.80367 | 15086 ft | 313 kts | 296° |
| 2026-04-21 22:30 | 40.80882 | -74.82996 | 15530 ft | 315 kts | 296° |
| 2026-04-21 22:30 | 40.81764 | -74.85641 | 15949 ft | 317 kts | 297° |
| 2026-04-21 22:30 | 40.82649 | -74.88294 | 16364 ft | 318 kts | 296° |
| 2026-04-21 22:31 | 40.83541 | -74.90970 | 16787 ft | 319 kts | 296° |
| 2026-04-21 22:31 | 40.84438 | -74.93665 | 17206 ft | 322 kts | 296° |
| 2026-04-21 22:31 | 40.85334 | -74.96359 | 17626 ft | 323 kts | 297° |
| 2026-04-21 22:31 | 40.86233 | -74.99064 | 18046 ft | 325 kts | 296° |
| 2026-04-21 22:32 | 40.87141 | -75.01801 | 18464 ft | 326 kts | 297° |
| 2026-04-21 22:32 | 40.88043 | -75.04522 | 18872 ft | 329 kts | 296° |
| 2026-04-21 22:32 | 40.88968 | -75.07313 | 19289 ft | 330 kts | 296° |
| 2026-04-21 22:32 | 40.89894 | -75.10112 | 19705 ft | 333 kts | 297° |
| 2026-04-21 22:33 | 40.90818 | -75.12912 | 20112 ft | 335 kts | 296° |
| 2026-04-21 22:33 | 40.91478 | -75.15884 | 20514 ft | 344 kts | 283° |
| 2026-04-21 22:33 | 40.91526 | -75.19070 | 20911 ft | 354 kts | 269° |
| 2026-04-21 22:33 | 40.90979 | -75.22272 | 21320 ft | 365 kts | 261° |
| 2026-04-21 22:34 | 40.90241 | -75.25491 | 21729 ft | 368 kts | 260° |
| 2026-04-21 22:34 | 40.89478 | -75.28733 | 22141 ft | 369 kts | 260° |
| 2026-04-21 22:34 | 40.88723 | -75.31940 | 22547 ft | 372 kts | 260° |
| 2026-04-21 22:34 | 40.87945 | -75.35244 | 22960 ft | 376 kts | 259° |
| 2026-04-21 22:35 | 40.87180 | -75.38490 | 23361 ft | 377 kts | 260° |
| 2026-04-21 22:35 | 40.86396 | -75.41812 | 23778 ft | 379 kts | 260° |
| 2026-04-21 22:35 | 40.85605 | -75.45162 | 24207 ft | 382 kts | 260° |
| 2026-04-21 22:35 | 40.84813 | -75.48510 | 24633 ft | 385 kts | 260° |
| 2026-04-21 22:36 | 40.83207 | -75.55284 | 25494 ft | 391 kts | 259° |
| 2026-04-21 22:36 | 40.82401 | -75.58673 | 25924 ft | 392 kts | 259° |
| 2026-04-21 22:36 | 40.81578 | -75.62131 | 26361 ft | 395 kts | 259° |
| 2026-04-21 22:37 | 40.80759 | -75.65574 | 26793 ft | 399 kts | 259° |
| 2026-04-21 22:37 | 40.79919 | -75.69089 | 27244 ft | 400 kts | 259° |
| 2026-04-21 22:37 | 40.79093 | -75.72546 | 27684 ft | 403 kts | 259° |
| 2026-04-21 22:37 | 40.78244 | -75.76096 | 28133 ft | 407 kts | 259° |
| 2026-04-21 22:38 | 40.77393 | -75.79645 | 28579 ft | 409 kts | 258° |
| 2026-04-21 22:38 | 40.76521 | -75.83276 | 29031 ft | 412 kts | 259° |
| 2026-04-21 22:38 | 40.75657 | -75.86870 | 29474 ft | 415 kts | 259° |
| 2026-04-21 22:38 | 40.74784 | -75.90492 | 29987 ft | 415 kts | 258° |
| 2026-04-21 22:39 | 40.73918 | -75.94083 | 30526 ft | 419 kts | 258° |
| 2026-04-21 22:39 | 40.73033 | -75.97746 | 31068 ft | 423 kts | 258° |
| 2026-04-21 22:39 | 40.72135 | -76.01461 | 31617 ft | 427 kts | 258° |
| 2026-04-21 22:39 | 40.71231 | -76.05190 | 32164 ft | 430 kts | 258° |
| 2026-04-21 22:40 | 40.70324 | -76.08928 | 32711 ft | 433 kts | 258° |
| 2026-04-21 22:40 | 40.69395 | -76.12748 | 33267 ft | 436 kts | 258° |
| 2026-04-21 22:40 | 40.68455 | -76.16606 | 33826 ft | 439 kts | 258° |
| 2026-04-21 22:40 | 40.67528 | -76.20406 | 34378 ft | 440 kts | 258° |
| 2026-04-21 22:41 | 40.66563 | -76.24229 | 34790 ft | 445 kts | 255° |
| 2026-04-21 22:41 | 40.65403 | -76.28038 | 35179 ft | 449 kts | 253° |
| 2026-04-21 22:41 | 40.64211 | -76.31836 | 35558 ft | 451 kts | 253° |
| 2026-04-21 22:41 | 40.63015 | -76.35636 | 35941 ft | 453 kts | 253° |
| 2026-04-21 22:42 | 40.61807 | -76.39475 | 36184 ft | 457 kts | 253° |
| 2026-04-21 22:42 | 40.60589 | -76.43339 | 36208 ft | 458 kts | 253° |
| 2026-04-21 22:42 | 40.58168 | -76.51002 | 36217 ft | 452 kts | 253° |
| 2026-04-21 22:43 | 40.56221 | -76.58784 | 36215 ft | 447 kts | 265° |
| 2026-04-21 22:43 | 40.55958 | -76.66808 | 36207 ft | 438 kts | 279° |
| 2026-04-21 22:44 | 40.56662 | -76.74722 | 36210 ft | 439 kts | 279° |
| 2026-04-21 22:44 | 40.57382 | -76.82673 | 36202 ft | 438 kts | 279° |
| 2026-04-21 22:45 | 40.58088 | -76.90572 | 36201 ft | 438 kts | 279° |
| 2026-04-21 22:45 | 40.58790 | -76.98515 | 36192 ft | 438 kts | 279° |
| 2026-04-21 22:46 | 40.59484 | -77.06435 | 36182 ft | 438 kts | 279° |
| 2026-04-21 22:46 | 40.60175 | -77.14388 | 36180 ft | 438 kts | 279° |
| 2026-04-21 22:47 | 40.60858 | -77.22327 | 36177 ft | 439 kts | 279° |
| 2026-04-21 22:47 | 40.61536 | -77.30270 | 36179 ft | 438 kts | 279° |
| 2026-04-21 22:48 | 40.62210 | -77.38224 | 36169 ft | 439 kts | 279° |
| 2026-04-21 22:48 | 40.62877 | -77.46165 | 36157 ft | 439 kts | 279° |
| 2026-04-21 22:49 | 40.63538 | -77.54126 | 36158 ft | 439 kts | 279° |
| 2026-04-21 22:49 | 40.64191 | -77.62050 | 36161 ft | 439 kts | 279° |
| 2026-04-21 22:50 | 40.64846 | -77.70049 | 36162 ft | 441 kts | 278° |
| 2026-04-21 22:50 | 40.65494 | -77.78034 | 36163 ft | 440 kts | 278° |
| 2026-04-21 22:51 | 40.66135 | -77.86011 | 36154 ft | 440 kts | 278° |
| 2026-04-21 22:51 | 40.66774 | -77.94041 | 36128 ft | 441 kts | 278° |
| 2026-04-21 22:52 | 40.67403 | -78.02023 | 36124 ft | 440 kts | 278° |
| 2026-04-21 22:52 | 40.68025 | -78.09986 | 36131 ft | 441 kts | 278° |
| 2026-04-21 22:53 | 40.68647 | -78.18012 | 36118 ft | 439 kts | 278° |
| 2026-04-21 22:53 | 40.69257 | -78.25964 | 36113 ft | 440 kts | 278° |
| 2026-04-21 22:54 | 40.69864 | -78.33955 | 36104 ft | 439 kts | 278° |
| 2026-04-21 22:54 | 40.70466 | -78.41945 | 36105 ft | 439 kts | 278° |
| 2026-04-21 22:55 | 40.71059 | -78.49892 | 36106 ft | 438 kts | 278° |
| 2026-04-21 22:55 | 40.71648 | -78.57849 | 36119 ft | 438 kts | 278° |
| 2026-04-21 22:56 | 40.72234 | -78.65859 | 36103 ft | 439 kts | 278° |
| 2026-04-21 22:56 | 40.72809 | -78.73788 | 36124 ft | 438 kts | 277° |
| 2026-04-21 22:57 | 40.73382 | -78.81770 | 36111 ft | 437 kts | 278° |
| 2026-04-21 22:57 | 40.73947 | -78.89700 | 36111 ft | 438 kts | 277° |
| 2026-04-21 22:58 | 40.74510 | -78.97701 | 36114 ft | 436 kts | 277° |
| 2026-04-21 22:58 | 40.75061 | -79.05612 | 36102 ft | 437 kts | 278° |
| 2026-04-21 22:59 | 40.75612 | -79.13583 | 36102 ft | 435 kts | 278° |
| 2026-04-21 22:59 | 40.76154 | -79.21510 | 36098 ft | 436 kts | 278° |
| 2026-04-21 23:00 | 40.76688 | -79.29417 | 36086 ft | 436 kts | 277° |
| 2026-04-21 23:00 | 40.77223 | -79.37398 | 36086 ft | 437 kts | 277° |
| 2026-04-21 23:01 | 40.77747 | -79.45311 | 36080 ft | 435 kts | 277° |
| 2026-04-21 23:01 | 40.78270 | -79.53292 | 36077 ft | 438 kts | 277° |
| 2026-04-21 23:02 | 40.78785 | -79.61227 | 36077 ft | 437 kts | 278° |
| 2026-04-21 23:02 | 40.79298 | -79.69223 | 36079 ft | 437 kts | 277° |
| 2026-04-21 23:03 | 40.79802 | -79.77174 | 36077 ft | 437 kts | 277° |
| 2026-04-21 23:03 | 40.80300 | -79.85098 | 36075 ft | 437 kts | 277° |
| 2026-04-21 23:04 | 40.80792 | -79.93039 | 36079 ft | 436 kts | 277° |
| 2026-04-21 23:04 | 40.81284 | -80.01043 | 36076 ft | 436 kts | 277° |
| 2026-04-21 23:05 | 40.81765 | -80.08976 | 36074 ft | 435 kts | 277° |
| 2026-04-21 23:05 | 40.82240 | -80.16901 | 36070 ft | 436 kts | 277° |
| 2026-04-21 23:06 | 40.82698 | -80.24880 | 36066 ft | 437 kts | 276° |
| 2026-04-21 23:06 | 40.83108 | -80.32840 | 36070 ft | 437 kts | 276° |
| 2026-04-21 23:07 | 40.83514 | -80.40810 | 36067 ft | 436 kts | 276° |
| 2026-04-21 23:07 | 40.83914 | -80.48740 | 36064 ft | 436 kts | 276° |
| 2026-04-21 23:08 | 40.84311 | -80.56705 | 36055 ft | 435 kts | 276° |
| 2026-04-21 23:08 | 40.84699 | -80.64612 | 36046 ft | 436 kts | 276° |
| 2026-04-21 23:09 | 40.85085 | -80.72571 | 36047 ft | 436 kts | 276° |
| 2026-04-21 23:09 | 40.85467 | -80.80547 | 36044 ft | 435 kts | 276° |
| 2026-04-21 23:10 | 40.85840 | -80.88468 | 36040 ft | 435 kts | 276° |
| 2026-04-21 23:10 | 40.86208 | -80.96402 | 36037 ft | 435 kts | 276° |
| 2026-04-21 23:11 | 40.86573 | -81.04359 | 36031 ft | 435 kts | 276° |
| 2026-04-21 23:11 | 40.86932 | -81.12349 | 36033 ft | 436 kts | 276° |
| 2026-04-21 23:12 | 40.87287 | -81.20310 | 36034 ft | 436 kts | 276° |
| 2026-04-21 23:12 | 40.87637 | -81.28252 | 36033 ft | 435 kts | 276° |
| 2026-04-21 23:13 | 40.87983 | -81.36238 | 36033 ft | 436 kts | 276° |
| 2026-04-21 23:13 | 40.88321 | -81.44184 | 36032 ft | 435 kts | 276° |
| 2026-04-21 23:14 | 40.88654 | -81.52124 | 36032 ft | 435 kts | 276° |
| 2026-04-21 23:14 | 40.88981 | -81.60066 | 36026 ft | 434 kts | 276° |
| 2026-04-21 23:15 | 40.89303 | -81.68007 | 36041 ft | 435 kts | 275° |
| 2026-04-21 23:15 | 40.89616 | -81.75960 | 36038 ft | 434 kts | 275° |
| 2026-04-21 23:16 | 40.89922 | -81.83899 | 36040 ft | 434 kts | 275° |
| 2026-04-21 23:16 | 40.90224 | -81.91853 | 36043 ft | 435 kts | 275° |
| 2026-04-21 23:17 | 40.90520 | -81.99801 | 36034 ft | 435 kts | 275° |
| 2026-04-21 23:17 | 40.90810 | -82.07741 | 36027 ft | 434 kts | 275° |
| 2026-04-21 23:18 | 40.91094 | -82.15676 | 36019 ft | 435 kts | 275° |
| 2026-04-21 23:18 | 40.91373 | -82.23616 | 36015 ft | 434 kts | 275° |
| 2026-04-21 23:19 | 40.91649 | -82.31599 | 36015 ft | 435 kts | 275° |
| 2026-04-21 23:19 | 40.91917 | -82.39558 | 36021 ft | 435 kts | 275° |
| 2026-04-21 23:20 | 40.92182 | -82.47536 | 36017 ft | 435 kts | 275° |
| 2026-04-21 23:20 | 40.92440 | -82.55467 | 36018 ft | 434 kts | 275° |
| 2026-04-21 23:21 | 40.92694 | -82.63443 | 36020 ft | 434 kts | 275° |
| 2026-04-21 23:21 | 40.92941 | -82.71378 | 36020 ft | 434 kts | 275° |
| 2026-04-21 23:22 | 40.93182 | -82.79285 | 36014 ft | 435 kts | 275° |
| 2026-04-21 23:22 | 40.93420 | -82.87263 | 36007 ft | 435 kts | 275° |
| 2026-04-21 23:23 | 40.93651 | -82.95197 | 36007 ft | 434 kts | 275° |
| 2026-04-21 23:23 | 40.93877 | -83.03162 | 36005 ft | 434 kts | 275° |
| 2026-04-21 23:24 | 40.94098 | -83.11122 | 35995 ft | 435 kts | 275° |
| 2026-04-21 23:24 | 40.94312 | -83.19051 | 35993 ft | 434 kts | 275° |
| 2026-04-21 23:25 | 40.94521 | -83.27010 | 35990 ft | 434 kts | 275° |
| 2026-04-21 23:25 | 40.94726 | -83.34993 | 35980 ft | 434 kts | 275° |
| 2026-04-21 23:26 | 40.94925 | -83.42961 | 35982 ft | 435 kts | 275° |
| 2026-04-21 23:26 | 40.95117 | -83.50870 | 35978 ft | 433 kts | 275° |
| 2026-04-21 23:27 | 40.95305 | -83.58812 | 35984 ft | 434 kts | 275° |
| 2026-04-21 23:27 | 40.95487 | -83.66772 | 35984 ft | 434 kts | 274° |
| 2026-04-21 23:28 | 40.95664 | -83.74751 | 35994 ft | 434 kts | 274° |
| 2026-04-21 23:28 | 40.95834 | -83.82673 | 35986 ft | 433 kts | 275° |
| 2026-04-21 23:29 | 40.95999 | -83.90588 | 35989 ft | 434 kts | 275° |
| 2026-04-21 23:29 | 40.96160 | -83.98561 | 35995 ft | 433 kts | 274° |
| 2026-04-21 23:30 | 40.96314 | -84.06477 | 35984 ft | 433 kts | 275° |
| 2026-04-21 23:30 | 40.96463 | -84.14414 | 35969 ft | 434 kts | 275° |
| 2026-04-21 23:31 | 40.96608 | -84.22410 | 35961 ft | 434 kts | 275° |
| 2026-04-21 23:31 | 40.96745 | -84.30367 | 35958 ft | 436 kts | 275° |
| 2026-04-21 23:32 | 40.96878 | -84.38352 | 35961 ft | 437 kts | 275° |
| 2026-04-21 23:32 | 40.97006 | -84.46405 | 35966 ft | 438 kts | 275° |
| 2026-04-21 23:33 | 40.97128 | -84.54414 | 35972 ft | 439 kts | 275° |
| 2026-04-21 23:33 | 40.97245 | -84.62475 | 35968 ft | 439 kts | 275° |
| 2026-04-21 23:34 | 40.97356 | -84.70504 | 35984 ft | 441 kts | 275° |
| 2026-04-21 23:34 | 40.97462 | -84.78605 | 35978 ft | 440 kts | 275° |
| 2026-04-21 23:35 | 40.97563 | -84.86665 | 35978 ft | 442 kts | 275° |
| 2026-04-21 23:35 | 40.97657 | -84.94737 | 35978 ft | 441 kts | 275° |
| 2026-04-21 23:36 | 40.97747 | -85.02882 | 35992 ft | 442 kts | 275° |
| 2026-04-21 23:36 | 40.97831 | -85.10947 | 35998 ft | 443 kts | 275° |
| 2026-04-21 23:37 | 40.97909 | -85.19087 | 35994 ft | 444 kts | 275° |
| 2026-04-21 23:37 | 40.98261 | -85.27180 | 36000 ft | 442 kts | 278° |
| 2026-04-21 23:38 | 40.98681 | -85.35312 | 35992 ft | 444 kts | 277° |
| 2026-04-21 23:38 | 40.99082 | -85.43447 | 35987 ft | 444 kts | 277° |
| 2026-04-21 23:39 | 40.99471 | -85.51589 | 35982 ft | 445 kts | 277° |
| 2026-04-21 23:39 | 40.99849 | -85.59715 | 35977 ft | 446 kts | 277° |
| 2026-04-21 23:40 | 41.00224 | -85.67920 | 35960 ft | 448 kts | 277° |
| 2026-04-21 23:40 | 41.00592 | -85.76141 | 35947 ft | 447 kts | 277° |
| 2026-04-21 23:41 | 41.00954 | -85.84343 | 35950 ft | 450 kts | 276° |
| 2026-04-21 23:41 | 41.01310 | -85.92555 | 35946 ft | 448 kts | 276° |
| 2026-04-21 23:42 | 41.01659 | -86.00764 | 35944 ft | 449 kts | 276° |
| 2026-04-21 23:42 | 41.02004 | -86.09005 | 35957 ft | 449 kts | 276° |
| 2026-04-21 23:43 | 41.02343 | -86.17238 | 35955 ft | 451 kts | 276° |
| 2026-04-21 23:43 | 41.02676 | -86.25476 | 35954 ft | 449 kts | 276° |
| 2026-04-21 23:44 | 41.03004 | -86.33718 | 35943 ft | 450 kts | 276° |
| 2026-04-21 23:44 | 41.03323 | -86.41926 | 35931 ft | 449 kts | 276° |
| 2026-04-21 23:45 | 41.03794 | -86.54270 | 35937 ft | 449 kts | 276° |
| 2026-04-21 23:46 | 41.04102 | -86.62541 | 35932 ft | 451 kts | 276° |
| 2026-04-21 23:46 | 41.04402 | -86.70757 | 35938 ft | 450 kts | 276° |
| 2026-04-21 23:47 | 41.04698 | -86.79033 | 35952 ft | 452 kts | 275° |
| 2026-04-21 23:47 | 41.04987 | -86.87272 | 35955 ft | 452 kts | 276° |
| 2026-04-21 23:48 | 41.05272 | -86.95584 | 35955 ft | 451 kts | 276° |
| 2026-04-21 23:48 | 41.05551 | -87.03877 | 35959 ft | 451 kts | 276° |
| 2026-04-21 23:49 | 41.05823 | -87.12127 | 35955 ft | 452 kts | 276° |
| 2026-04-21 23:49 | 41.06089 | -87.20392 | 35959 ft | 450 kts | 276° |
| 2026-04-21 23:50 | 41.06349 | -87.28655 | 35959 ft | 450 kts | 276° |
| 2026-04-21 23:50 | 41.06602 | -87.36898 | 35956 ft | 450 kts | 275° |
| 2026-04-21 23:51 | 41.06851 | -87.45186 | 35953 ft | 450 kts | 275° |
| 2026-04-21 23:51 | 41.07094 | -87.53451 | 35952 ft | 451 kts | 275° |
| 2026-04-21 23:52 | 41.07331 | -87.61738 | 35947 ft | 452 kts | 275° |
| 2026-04-21 23:52 | 41.07563 | -87.70056 | 35958 ft | 453 kts | 275° |
| 2026-04-21 23:53 | 41.07789 | -87.78361 | 35961 ft | 454 kts | 275° |
| 2026-04-21 23:53 | 41.08009 | -87.86714 | 35959 ft | 455 kts | 275° |
| 2026-04-21 23:54 | 41.08224 | -87.95049 | 35956 ft | 454 kts | 275° |
| 2026-04-21 23:54 | 41.08431 | -88.03330 | 35954 ft | 454 kts | 275° |
| 2026-04-21 23:55 | 41.08634 | -88.11714 | 35957 ft | 453 kts | 275° |
| 2026-04-21 23:55 | 41.08830 | -88.20003 | 35953 ft | 454 kts | 275° |
| 2026-04-21 23:56 | 41.09019 | -88.28299 | 35943 ft | 451 kts | 275° |
| 2026-04-21 23:56 | 41.09203 | -88.36610 | 35949 ft | 454 kts | 275° |
| 2026-04-21 23:57 | 41.09381 | -88.44923 | 35956 ft | 454 kts | 275° |
| 2026-04-21 23:57 | 41.09553 | -88.53251 | 35953 ft | 453 kts | 275° |
| 2026-04-21 23:58 | 41.09721 | -88.61631 | 35961 ft | 456 kts | 275° |
| 2026-04-21 23:58 | 41.09802 | -88.65832 | 36207 ft | 455 kts | 275° |
| 2026-04-21 23:58 | 41.09882 | -88.70019 | 35973 ft | 454 kts | 275° |
| 2026-04-21 23:59 | 41.10035 | -88.78325 | 35966 ft | 457 kts | 275° |
| 2026-04-21 23:59 | 41.10184 | -88.86694 | 35966 ft | 454 kts | 275° |
| 2026-04-22 00:00 | 41.10326 | -88.95037 | 35960 ft | 455 kts | 275° |
| 2026-04-22 00:00 | 41.10462 | -89.03357 | 35945 ft | 454 kts | 275° |
| 2026-04-22 00:01 | 41.10593 | -89.11717 | 35960 ft | 453 kts | 275° |
| 2026-04-22 00:01 | 41.10716 | -89.20004 | 35950 ft | 454 kts | 275° |
| 2026-04-22 00:02 | 41.10836 | -89.28376 | 35954 ft | 455 kts | 275° |
| 2026-04-22 00:02 | 41.10948 | -89.36729 | 35948 ft | 457 kts | 276° |
| 2026-04-22 00:03 | 41.11054 | -89.45129 | 35960 ft | 454 kts | 276° |
| 2026-04-22 00:03 | 41.11155 | -89.53467 | 35957 ft | 456 kts | 276° |
| 2026-04-22 00:04 | 41.11250 | -89.61844 | 35947 ft | 456 kts | 276° |
| 2026-04-22 00:04 | 41.11338 | -89.70255 | 35953 ft | 457 kts | 276° |
| 2026-04-22 00:05 | 41.11421 | -89.78668 | 35959 ft | 459 kts | 276° |
| 2026-04-22 00:05 | 41.11497 | -89.87086 | 35956 ft | 456 kts | 276° |
| 2026-04-22 00:06 | 41.11569 | -89.95499 | 35949 ft | 462 kts | 276° |
| 2026-04-22 00:06 | 41.11633 | -90.03986 | 35954 ft | 460 kts | 276° |
| 2026-04-22 00:07 | 41.11647 | -90.12439 | 35950 ft | 461 kts | 276° |
| 2026-04-22 00:07 | 41.11637 | -90.21001 | 35967 ft | 464 kts | 276° |
| 2026-04-22 00:08 | 41.11620 | -90.29511 | 35949 ft | 461 kts | 276° |
| 2026-04-22 00:08 | 41.11601 | -90.38011 | 35963 ft | 466 kts | 276° |
| 2026-04-22 00:09 | 41.11574 | -90.46550 | 35960 ft | 465 kts | 276° |
| 2026-04-22 00:09 | 41.11541 | -90.55115 | 35951 ft | 462 kts | 277° |
| 2026-04-22 00:10 | 41.11503 | -90.63693 | 35945 ft | 467 kts | 277° |
| 2026-04-22 00:10 | 41.11457 | -90.72216 | 35944 ft | 466 kts | 276° |
| 2026-04-22 00:11 | 41.11406 | -90.80801 | 35948 ft | 466 kts | 276° |
| 2026-04-22 00:11 | 41.11349 | -90.89404 | 35940 ft | 468 kts | 276° |
| 2026-04-22 00:12 | 41.11284 | -90.97990 | 35928 ft | 468 kts | 276° |
| 2026-04-22 00:12 | 41.11214 | -91.06546 | 35923 ft | 467 kts | 276° |
| 2026-04-22 00:13 | 41.11137 | -91.15133 | 35928 ft | 468 kts | 276° |
| 2026-04-22 00:13 | 41.11054 | -91.23812 | 35929 ft | 470 kts | 276° |
| 2026-04-22 00:14 | 41.10962 | -91.32495 | 35930 ft | 470 kts | 276° |
| 2026-04-22 00:14 | 41.10866 | -91.41120 | 35931 ft | 470 kts | 276° |
| 2026-04-22 00:15 | 41.10762 | -91.49748 | 35931 ft | 467 kts | 276° |
| 2026-04-22 00:15 | 41.10653 | -91.58376 | 35933 ft | 468 kts | 276° |
| 2026-04-22 00:16 | 41.10538 | -91.66957 | 35939 ft | 468 kts | 276° |
| 2026-04-22 00:16 | 41.10416 | -91.75590 | 35947 ft | 470 kts | 276° |
| 2026-04-22 00:17 | 41.10287 | -91.84222 | 35952 ft | 471 kts | 276° |
| 2026-04-22 00:17 | 41.10151 | -91.92839 | 35951 ft | 470 kts | 276° |
| 2026-04-22 00:18 | 41.10009 | -92.01499 | 35949 ft | 470 kts | 276° |
| 2026-04-22 00:18 | 41.09861 | -92.10091 | 35942 ft | 467 kts | 275° |
| 2026-04-22 00:19 | 41.09708 | -92.18700 | 35943 ft | 469 kts | 276° |
| 2026-04-22 00:19 | 41.09547 | -92.27312 | 35944 ft | 470 kts | 275° |
| 2026-04-22 00:20 | 41.09380 | -92.35914 | 35950 ft | 470 kts | 275° |
| 2026-04-22 00:20 | 41.09206 | -92.44573 | 35950 ft | 469 kts | 275° |
| 2026-04-22 00:21 | 41.09027 | -92.53181 | 35951 ft | 472 kts | 275° |
| 2026-04-22 00:21 | 41.08839 | -92.61799 | 35951 ft | 470 kts | 275° |
| 2026-04-22 00:22 | 41.08646 | -92.70472 | 35943 ft | 471 kts | 275° |
| 2026-04-22 00:22 | 41.08447 | -92.79068 | 35938 ft | 470 kts | 274° |
| 2026-04-22 00:23 | 41.08240 | -92.87702 | 35943 ft | 471 kts | 274° |
| 2026-04-22 00:23 | 41.08026 | -92.96389 | 35945 ft | 471 kts | 274° |
| 2026-04-22 00:24 | 41.07806 | -93.05042 | 35936 ft | 470 kts | 274° |
| 2026-04-22 00:24 | 41.07581 | -93.13653 | 35945 ft | 470 kts | 274° |
| 2026-04-22 00:25 | 41.07349 | -93.22289 | 35949 ft | 471 kts | 274° |
| 2026-04-22 00:25 | 41.07111 | -93.30930 | 35952 ft | 471 kts | 274° |
| 2026-04-22 00:26 | 41.06865 | -93.39565 | 35955 ft | 470 kts | 274° |
| 2026-04-22 00:26 | 41.06614 | -93.48198 | 35946 ft | 470 kts | 274° |
| 2026-04-22 00:27 | 41.06357 | -93.56802 | 35947 ft | 471 kts | 274° |
| 2026-04-22 00:27 | 41.06093 | -93.65424 | 35945 ft | 470 kts | 273° |
| 2026-04-22 00:28 | 41.05822 | -93.74081 | 35950 ft | 472 kts | 273° |
| 2026-04-22 00:28 | 41.05544 | -93.82745 | 35952 ft | 471 kts | 273° |
| 2026-04-22 00:29 | 41.05260 | -93.91376 | 35954 ft | 471 kts | 273° |
| 2026-04-22 00:29 | 41.04968 | -94.00043 | 35962 ft | 471 kts | 273° |
| 2026-04-22 00:30 | 41.04672 | -94.08651 | 35959 ft | 471 kts | 273° |
| 2026-04-22 00:30 | 41.04369 | -94.17288 | 35959 ft | 470 kts | 273° |
| 2026-04-22 00:31 | 41.04060 | -94.25907 | 35963 ft | 470 kts | 272° |
| 2026-04-22 00:31 | 41.03746 | -94.34480 | 35969 ft | 470 kts | 272° |
| 2026-04-22 00:32 | 41.03423 | -94.43119 | 35973 ft | 470 kts | 272° |
| 2026-04-22 00:32 | 41.03095 | -94.51750 | 35972 ft | 471 kts | 272° |
| 2026-04-22 00:33 | 41.02760 | -94.60355 | 35966 ft | 469 kts | 272° |
| 2026-04-22 00:33 | 41.02419 | -94.68971 | 35971 ft | 471 kts | 272° |
| 2026-04-22 00:34 | 41.02070 | -94.77621 | 35966 ft | 470 kts | 271° |
| 2026-04-22 00:34 | 41.01716 | -94.86223 | 35958 ft | 469 kts | 271° |
| 2026-04-22 00:35 | 41.01356 | -94.94820 | 35955 ft | 470 kts | 271° |
| 2026-04-22 00:35 | 41.00990 | -95.03422 | 35943 ft | 470 kts | 271° |
| 2026-04-22 00:36 | 41.00617 | -95.12006 | 35942 ft | 469 kts | 271° |
| 2026-04-22 00:36 | 41.00238 | -95.20598 | 35942 ft | 470 kts | 271° |
| 2026-04-22 00:37 | 40.99853 | -95.29177 | 35942 ft | 469 kts | 271° |
| 2026-04-22 00:37 | 40.99461 | -95.37786 | 35939 ft | 470 kts | 271° |
| 2026-04-22 00:38 | 40.99064 | -95.46352 | 35944 ft | 470 kts | 271° |
| 2026-04-22 00:38 | 40.98658 | -95.54977 | 35942 ft | 469 kts | 271° |
| 2026-04-22 00:39 | 40.98249 | -95.63540 | 35944 ft | 469 kts | 271° |
| 2026-04-22 00:39 | 40.97832 | -95.72097 | 35945 ft | 469 kts | 270° |
| 2026-04-22 00:40 | 40.97409 | -95.80691 | 35946 ft | 469 kts | 270° |
| 2026-04-22 00:40 | 40.96980 | -95.89252 | 35945 ft | 468 kts | 270° |
| 2026-04-22 00:41 | 40.96544 | -95.97821 | 35947 ft | 469 kts | 270° |
| 2026-04-22 00:41 | 40.96101 | -96.06427 | 35946 ft | 469 kts | 270° |
| 2026-04-22 00:42 | 40.95651 | -96.15028 | 35945 ft | 470 kts | 270° |
| 2026-04-22 00:42 | 40.95198 | -96.23553 | 35942 ft | 468 kts | 270° |
| 2026-04-22 00:43 | 40.94735 | -96.32154 | 35941 ft | 469 kts | 270° |
| 2026-04-22 00:43 | 40.94268 | -96.40714 | 35938 ft | 469 kts | 270° |
| 2026-04-22 00:44 | 40.93795 | -96.49270 | 35942 ft | 469 kts | 270° |
| 2026-04-22 00:44 | 40.93315 | -96.57821 | 35944 ft | 469 kts | 269° |
| 2026-04-22 00:45 | 40.92829 | -96.66380 | 35946 ft | 468 kts | 269° |
| 2026-04-22 00:45 | 40.92283 | -96.74964 | 35952 ft | 470 kts | 266° |
| 2026-04-22 00:46 | 40.91499 | -96.83469 | 35950 ft | 469 kts | 266° |
| 2026-04-22 00:46 | 40.90691 | -96.92042 | 35950 ft | 470 kts | 266° |
| 2026-04-22 00:47 | 40.89879 | -97.00565 | 35940 ft | 469 kts | 266° |
| 2026-04-22 00:47 | 40.89061 | -97.09068 | 35930 ft | 470 kts | 266° |
| 2026-04-22 00:48 | 40.88228 | -97.17662 | 35932 ft | 471 kts | 266° |
| 2026-04-22 00:48 | 40.87392 | -97.26209 | 35930 ft | 471 kts | 266° |
| 2026-04-22 00:49 | 40.86554 | -97.34708 | 35931 ft | 471 kts | 266° |
| 2026-04-22 00:49 | 40.85703 | -97.43282 | 35927 ft | 470 kts | 266° |
| 2026-04-22 00:50 | 40.84850 | -97.51794 | 35931 ft | 470 kts | 266° |
| 2026-04-22 00:50 | 40.83993 | -97.60291 | 35929 ft | 469 kts | 265° |
| 2026-04-22 00:51 | 40.83126 | -97.68823 | 35932 ft | 470 kts | 265° |
| 2026-04-22 00:51 | 40.82258 | -97.77305 | 35934 ft | 470 kts | 265° |
| 2026-04-22 00:52 | 40.81377 | -97.85845 | 35932 ft | 472 kts | 265° |
| 2026-04-22 00:52 | 40.80487 | -97.94402 | 35933 ft | 471 kts | 265° |
| 2026-04-22 00:53 | 40.79591 | -98.02958 | 35940 ft | 472 kts | 265° |
| 2026-04-22 00:53 | 40.78694 | -98.11465 | 35939 ft | 471 kts | 265° |
| 2026-04-22 00:54 | 40.77786 | -98.20021 | 35935 ft | 471 kts | 264° |
| 2026-04-22 00:54 | 40.76875 | -98.28523 | 35926 ft | 469 kts | 264° |
| 2026-04-22 00:55 | 40.75959 | -98.37034 | 35937 ft | 471 kts | 264° |
| 2026-04-22 00:55 | 40.74575 | -98.49763 | 35928 ft | 471 kts | 264° |
| 2026-04-22 00:56 | 40.73638 | -98.58306 | 35924 ft | 472 kts | 264° |
| 2026-04-22 00:56 | 40.72693 | -98.66868 | 35918 ft | 472 kts | 263° |
| 2026-04-22 00:57 | 40.71744 | -98.75399 | 35921 ft | 471 kts | 264° |
| 2026-04-22 00:57 | 40.70790 | -98.83921 | 35921 ft | 471 kts | 263° |
| 2026-04-22 00:58 | 40.69830 | -98.92432 | 35934 ft | 472 kts | 263° |
| 2026-04-22 00:58 | 40.68866 | -99.00923 | 35934 ft | 471 kts | 263° |
| 2026-04-22 00:59 | 40.67886 | -99.09502 | 35937 ft | 472 kts | 263° |
| 2026-04-22 00:59 | 40.66905 | -99.18027 | 35931 ft | 471 kts | 263° |
| 2026-04-22 01:00 | 40.65921 | -99.26522 | 35934 ft | 471 kts | 263° |
| 2026-04-22 01:00 | 40.64929 | -99.35033 | 35938 ft | 471 kts | 263° |
| 2026-04-22 01:01 | 40.63934 | -99.43520 | 35941 ft | 471 kts | 263° |
| 2026-04-22 01:01 | 40.62931 | -99.52003 | 35938 ft | 470 kts | 263° |
| 2026-04-22 01:02 | 40.61922 | -99.60496 | 35936 ft | 469 kts | 263° |
| 2026-04-22 01:02 | 40.60905 | -99.68995 | 35934 ft | 470 kts | 262° |
| 2026-04-22 01:03 | 40.59893 | -99.77400 | 35930 ft | 470 kts | 262° |
| 2026-04-22 01:03 | 40.58865 | -99.85877 | 35926 ft | 470 kts | 262° |
| 2026-04-22 01:04 | 40.57829 | -99.94377 | 35930 ft | 471 kts | 262° |
| 2026-04-22 01:04 | 40.56792 | -100.02821 | 35929 ft | 469 kts | 262° |
| 2026-04-22 01:05 | 40.55744 | -100.11316 | 35932 ft | 471 kts | 262° |
| 2026-04-22 01:05 | 40.54693 | -100.19769 | 35934 ft | 470 kts | 262° |
| 2026-04-22 01:06 | 40.53637 | -100.28222 | 35939 ft | 469 kts | 262° |
| 2026-04-22 01:06 | 40.52578 | -100.36636 | 35941 ft | 469 kts | 262° |
| 2026-04-22 01:07 | 40.51515 | -100.45036 | 35945 ft | 468 kts | 262° |
| 2026-04-22 01:07 | 40.50439 | -100.53485 | 35951 ft | 469 kts | 262° |
| 2026-04-22 01:08 | 40.49367 | -100.61856 | 35953 ft | 468 kts | 262° |
| 2026-04-22 01:08 | 40.48283 | -100.70264 | 35959 ft | 470 kts | 261° |
| 2026-04-22 01:09 | 40.47189 | -100.78707 | 35962 ft | 469 kts | 261° |
| 2026-04-22 01:09 | 40.46088 | -100.87153 | 35959 ft | 469 kts | 261° |
| 2026-04-22 01:10 | 40.45039 | -100.95534 | 35958 ft | 468 kts | 263° |
| 2026-04-22 01:10 | 40.44266 | -101.04002 | 35958 ft | 468 kts | 263° |
| 2026-04-22 01:11 | 40.43482 | -101.12481 | 35957 ft | 468 kts | 263° |
| 2026-04-22 01:11 | 40.42685 | -101.20936 | 35957 ft | 467 kts | 263° |
| 2026-04-22 01:12 | 40.41878 | -101.29357 | 35952 ft | 468 kts | 263° |
| 2026-04-22 01:12 | 40.41057 | -101.37846 | 35954 ft | 468 kts | 263° |
| 2026-04-22 01:13 | 40.40235 | -101.46257 | 35959 ft | 468 kts | 263° |
| 2026-04-22 01:13 | 40.39404 | -101.54685 | 35963 ft | 468 kts | 263° |
| 2026-04-22 01:14 | 40.38567 | -101.63115 | 35969 ft | 468 kts | 263° |
| 2026-04-22 01:14 | 40.37721 | -101.71556 | 35967 ft | 468 kts | 262° |
| 2026-04-22 01:15 | 40.36873 | -101.79961 | 35968 ft | 467 kts | 262° |
| 2026-04-22 01:15 | 40.36015 | -101.88397 | 35976 ft | 467 kts | 262° |
| 2026-04-22 01:16 | 40.35156 | -101.96785 | 35983 ft | 467 kts | 262° |
| 2026-04-22 01:16 | 40.34288 | -102.05202 | 35990 ft | 466 kts | 262° |
| 2026-04-22 01:17 | 40.33416 | -102.13585 | 35997 ft | 467 kts | 262° |
| 2026-04-22 01:17 | 40.32536 | -102.21999 | 36001 ft | 467 kts | 262° |
| 2026-04-22 01:18 | 40.31650 | -102.30394 | 36010 ft | 467 kts | 262° |
| 2026-04-22 01:18 | 40.30756 | -102.38822 | 36009 ft | 466 kts | 262° |
| 2026-04-22 01:19 | 40.29861 | -102.47188 | 36021 ft | 467 kts | 262° |
| 2026-04-22 01:19 | 40.28955 | -102.55603 | 36025 ft | 466 kts | 262° |
| 2026-04-22 01:20 | 40.28047 | -102.63974 | 36030 ft | 465 kts | 262° |
| 2026-04-22 01:20 | 40.27137 | -102.72313 | 36037 ft | 465 kts | 261° |
| 2026-04-22 01:21 | 40.26219 | -102.80658 | 36043 ft | 466 kts | 261° |
| 2026-04-22 01:21 | 40.25291 | -102.89046 | 36047 ft | 466 kts | 261° |
| 2026-04-22 01:22 | 40.24359 | -102.97409 | 36051 ft | 467 kts | 261° |
| 2026-04-22 01:22 | 40.23416 | -103.05809 | 36045 ft | 466 kts | 261° |
| 2026-04-22 01:23 | 40.22475 | -103.14146 | 36038 ft | 466 kts | 261° |
| 2026-04-22 01:23 | 40.21526 | -103.22495 | 36035 ft | 466 kts | 261° |
| 2026-04-22 01:24 | 40.20571 | -103.30833 | 36037 ft | 465 kts | 261° |
| 2026-04-22 01:24 | 40.19610 | -103.39182 | 36044 ft | 465 kts | 261° |
| 2026-04-22 01:25 | 40.18645 | -103.47507 | 36046 ft | 465 kts | 261° |
| 2026-04-22 01:25 | 40.17672 | -103.55843 | 36056 ft | 466 kts | 260° |
| 2026-04-22 01:26 | 40.16691 | -103.64194 | 36051 ft | 466 kts | 260° |
| 2026-04-22 01:26 | 40.15703 | -103.72556 | 36050 ft | 465 kts | 259° |
| 2026-04-22 01:27 | 40.14714 | -103.80869 | 36047 ft | 465 kts | 259° |
| 2026-04-22 01:27 | 40.13721 | -103.89163 | 36050 ft | 465 kts | 259° |
| 2026-04-22 01:28 | 40.12715 | -103.97519 | 36061 ft | 464 kts | 259° |
| 2026-04-22 01:28 | 40.11713 | -104.05783 | 36066 ft | 464 kts | 259° |
| 2026-04-22 01:29 | 40.10698 | -104.14113 | 36072 ft | 466 kts | 259° |
| 2026-04-22 01:29 | 40.09679 | -104.22416 | 36075 ft | 464 kts | 259° |
| 2026-04-22 01:30 | 40.08657 | -104.30694 | 36075 ft | 465 kts | 259° |
| 2026-04-22 01:30 | 40.07620 | -104.39042 | 36073 ft | 465 kts | 259° |
| 2026-04-22 01:31 | 40.06583 | -104.47340 | 36065 ft | 464 kts | 259° |
| 2026-04-22 01:31 | 40.05545 | -104.55597 | 36051 ft | 464 kts | 259° |
| 2026-04-22 01:32 | 40.04494 | -104.63912 | 36198 ft | 463 kts | 259° |
| 2026-04-22 01:32 | 40.03972 | -104.68021 | 36408 ft | 464 kts | 258° |
| 2026-04-22 01:32 | 40.03443 | -104.72171 | 36625 ft | 463 kts | 258° |
| 2026-04-22 01:33 | 40.02918 | -104.76280 | 36839 ft | 462 kts | 258° |
| 2026-04-22 01:33 | 40.02391 | -104.80399 | 37055 ft | 462 kts | 258° |
| 2026-04-22 01:33 | 40.01860 | -104.84531 | 37270 ft | 461 kts | 258° |
| 2026-04-22 01:33 | 40.01333 | -104.88619 | 37481 ft | 460 kts | 258° |
| 2026-04-22 01:34 | 40.00798 | -104.92752 | 37704 ft | 460 kts | 258° |
| 2026-04-22 01:34 | 40.00270 | -104.96825 | 37918 ft | 461 kts | 258° |
| 2026-04-22 01:34 | 39.99733 | -105.00960 | 38026 ft | 461 kts | 258° |
| 2026-04-22 01:34 | 39.99200 | -105.05046 | 38022 ft | 460 kts | 258° |
| 2026-04-22 01:35 | 39.98125 | -105.13253 | 38021 ft | 460 kts | 257° |
| 2026-04-22 01:35 | 39.97054 | -105.21390 | 38046 ft | 460 kts | 258° |
| 2026-04-22 01:36 | 39.95971 | -105.29565 | 38069 ft | 460 kts | 258° |
| 2026-04-22 01:36 | 39.94881 | -105.37755 | 38110 ft | 459 kts | 258° |
| 2026-04-22 01:37 | 39.93785 | -105.45935 | 38159 ft | 458 kts | 258° |
| 2026-04-22 01:37 | 39.92689 | -105.54076 | 38253 ft | 458 kts | 257° |
| 2026-04-22 01:38 | 39.91594 | -105.62163 | 38296 ft | 458 kts | 258° |
| 2026-04-22 01:38 | 39.90486 | -105.70303 | 38353 ft | 458 kts | 257° |
| 2026-04-22 01:39 | 39.89367 | -105.78471 | 38368 ft | 459 kts | 257° |
| 2026-04-22 01:39 | 39.88248 | -105.86607 | 38383 ft | 458 kts | 257° |
| 2026-04-22 01:40 | 39.87130 | -105.94683 | 38393 ft | 457 kts | 257° |
| 2026-04-22 01:40 | 39.85997 | -106.02829 | 38410 ft | 457 kts | 257° |
| 2026-04-22 01:41 | 39.84869 | -106.10898 | 38410 ft | 457 kts | 257° |
| 2026-04-22 01:41 | 39.83724 | -106.19041 | 38410 ft | 456 kts | 257° |
| 2026-04-22 01:42 | 39.82583 | -106.27112 | 38403 ft | 455 kts | 257° |
| 2026-04-22 01:42 | 39.81430 | -106.35223 | 38401 ft | 456 kts | 257° |
| 2026-04-22 01:43 | 39.80278 | -106.43295 | 38399 ft | 455 kts | 257° |
| 2026-04-22 01:43 | 39.79124 | -106.51330 | 38391 ft | 456 kts | 257° |
| 2026-04-22 01:44 | 39.78115 | -106.59491 | 38366 ft | 457 kts | 259° |
| 2026-04-22 01:44 | 39.77260 | -106.67617 | 38353 ft | 457 kts | 259° |
| 2026-04-22 01:45 | 39.76382 | -106.75787 | 38323 ft | 457 kts | 259° |
| 2026-04-22 01:45 | 39.75494 | -106.83943 | 38306 ft | 457 kts | 258° |
| 2026-04-22 01:46 | 39.74599 | -106.92059 | 38287 ft | 457 kts | 258° |
| 2026-04-22 01:46 | 39.73693 | -107.00212 | 38288 ft | 456 kts | 258° |
| 2026-04-22 01:47 | 39.72783 | -107.08330 | 38312 ft | 457 kts | 258° |
| 2026-04-22 01:47 | 39.71864 | -107.16479 | 38347 ft | 454 kts | 258° |
| 2026-04-22 01:48 | 39.70941 | -107.24603 | 38337 ft | 457 kts | 258° |
| 2026-04-22 01:48 | 39.70013 | -107.32728 | 38354 ft | 456 kts | 258° |
| 2026-04-22 01:49 | 39.69080 | -107.40829 | 38376 ft | 457 kts | 259° |
| 2026-04-22 01:49 | 39.68145 | -107.48904 | 38373 ft | 456 kts | 258° |
| 2026-04-22 01:50 | 39.67200 | -107.57016 | 38317 ft | 454 kts | 258° |
| 2026-04-22 01:50 | 39.66256 | -107.65073 | 38274 ft | 453 kts | 258° |
| 2026-04-22 01:51 | 39.65306 | -107.73119 | 38255 ft | 454 kts | 258° |
| 2026-04-22 01:51 | 39.64350 | -107.81175 | 38241 ft | 452 kts | 258° |
| 2026-04-22 01:52 | 39.63389 | -107.89225 | 38232 ft | 453 kts | 258° |
| 2026-04-22 01:52 | 39.62423 | -107.97268 | 38238 ft | 453 kts | 258° |
| 2026-04-22 01:53 | 39.61456 | -108.05263 | 38223 ft | 452 kts | 258° |
| 2026-04-22 01:53 | 39.60481 | -108.13284 | 38235 ft | 451 kts | 258° |
| 2026-04-22 01:54 | 39.59502 | -108.21288 | 38241 ft | 452 kts | 258° |
| 2026-04-22 01:54 | 39.58511 | -108.29344 | 38228 ft | 451 kts | 258° |
| 2026-04-22 01:55 | 39.57523 | -108.37322 | 38244 ft | 454 kts | 258° |
| 2026-04-22 01:55 | 39.56520 | -108.45385 | 38217 ft | 452 kts | 258° |
| 2026-04-22 01:56 | 39.55520 | -108.53367 | 38214 ft | 451 kts | 258° |
| 2026-04-22 01:56 | 39.54509 | -108.61399 | 38191 ft | 451 kts | 258° |
| 2026-04-22 01:57 | 39.53500 | -108.69360 | 38197 ft | 453 kts | 257° |
| 2026-04-22 01:57 | 39.52482 | -108.77353 | 38164 ft | 450 kts | 257° |
| 2026-04-22 01:58 | 39.51454 | -108.85377 | 38162 ft | 452 kts | 257° |
| 2026-04-22 01:58 | 39.50422 | -108.93384 | 38163 ft | 452 kts | 257° |
| 2026-04-22 01:59 | 39.49392 | -109.01334 | 38163 ft | 450 kts | 257° |
| 2026-04-22 01:59 | 39.48347 | -109.09359 | 38175 ft | 451 kts | 257° |
| 2026-04-22 02:00 | 39.47305 | -109.17312 | 38175 ft | 450 kts | 257° |
| 2026-04-22 02:00 | 39.46258 | -109.25262 | 38176 ft | 450 kts | 257° |
| 2026-04-22 02:01 | 39.45205 | -109.33205 | 38164 ft | 450 kts | 257° |
| 2026-04-22 02:01 | 39.44150 | -109.41127 | 38154 ft | 448 kts | 257° |
| 2026-04-22 02:02 | 39.43087 | -109.49071 | 38154 ft | 450 kts | 257° |
| 2026-04-22 02:02 | 39.42015 | -109.57034 | 38158 ft | 448 kts | 257° |
| 2026-04-22 02:03 | 39.40949 | -109.64913 | 38151 ft | 447 kts | 257° |
| 2026-04-22 02:03 | 39.39870 | -109.72839 | 38151 ft | 447 kts | 256° |
| 2026-04-22 02:04 | 39.38250 | -109.84672 | 38155 ft | 446 kts | 256° |
| 2026-04-22 02:05 | 39.37174 | -109.92480 | 38106 ft | 445 kts | 256° |
| 2026-04-22 02:05 | 39.36099 | -110.00321 | 38082 ft | 446 kts | 256° |
| 2026-04-22 02:06 | 39.35071 | -110.08046 | 38073 ft | 443 kts | 256° |
| 2026-04-22 02:06 | 39.34020 | -110.15883 | 38088 ft | 445 kts | 256° |
| 2026-04-22 02:07 | 39.32960 | -110.23748 | 38092 ft | 444 kts | 256° |
| 2026-04-22 02:07 | 39.31903 | -110.31543 | 38093 ft | 443 kts | 256° |
| 2026-04-22 02:08 | 39.30833 | -110.39384 | 38085 ft | 444 kts | 256° |
| 2026-04-22 02:08 | 39.29765 | -110.47175 | 38085 ft | 443 kts | 256° |
| 2026-04-22 02:09 | 39.28690 | -110.54974 | 38086 ft | 442 kts | 256° |
| 2026-04-22 02:09 | 39.27611 | -110.62760 | 38090 ft | 445 kts | 256° |
| 2026-04-22 02:10 | 39.26523 | -110.70577 | 38089 ft | 443 kts | 255° |
| 2026-04-22 02:10 | 39.25429 | -110.78391 | 38097 ft | 441 kts | 255° |
| 2026-04-22 02:11 | 39.24340 | -110.86134 | 38105 ft | 443 kts | 255° |
| 2026-04-22 02:11 | 39.23241 | -110.93907 | 38099 ft | 443 kts | 255° |
| 2026-04-22 02:12 | 39.22136 | -111.01685 | 38100 ft | 443 kts | 255° |
| 2026-04-22 02:12 | 39.21026 | -111.09467 | 38107 ft | 442 kts | 255° |
| 2026-04-22 02:13 | 39.19915 | -111.17216 | 38126 ft | 440 kts | 255° |
| 2026-04-22 02:13 | 39.18796 | -111.24972 | 38133 ft | 441 kts | 255° |
| 2026-04-22 02:14 | 39.17676 | -111.32712 | 38145 ft | 440 kts | 255° |
| 2026-04-22 02:14 | 39.16553 | -111.40427 | 38153 ft | 440 kts | 255° |
| 2026-04-22 02:15 | 39.15418 | -111.48190 | 38156 ft | 441 kts | 255° |
| 2026-04-22 02:15 | 39.14286 | -111.55898 | 38150 ft | 438 kts | 254° |
| 2026-04-22 02:16 | 39.13152 | -111.63570 | 38120 ft | 439 kts | 255° |
| 2026-04-22 02:16 | 39.12013 | -111.71254 | 38096 ft | 437 kts | 253° |
| 2026-04-22 02:17 | 39.10869 | -111.78928 | 38067 ft | 438 kts | 254° |
| 2026-04-22 02:17 | 39.09718 | -111.86609 | 38064 ft | 437 kts | 253° |
| 2026-04-22 02:18 | 39.08573 | -111.94218 | 38058 ft | 437 kts | 253° |
| 2026-04-22 02:18 | 39.07413 | -112.01890 | 38055 ft | 438 kts | 253° |
| 2026-04-22 02:19 | 39.06254 | -112.09527 | 38051 ft | 436 kts | 253° |
| 2026-04-22 02:19 | 39.05095 | -112.17123 | 38021 ft | 436 kts | 253° |
| 2026-04-22 02:20 | 39.03923 | -112.24764 | 38008 ft | 436 kts | 253° |
| 2026-04-22 02:20 | 39.02747 | -112.32403 | 37978 ft | 436 kts | 253° |
| 2026-04-22 02:21 | 39.01570 | -112.40017 | 37945 ft | 436 kts | 253° |
| 2026-04-22 02:21 | 39.00377 | -112.47685 | 37943 ft | 438 kts | 253° |
| 2026-04-22 02:22 | 38.99188 | -112.55298 | 37944 ft | 439 kts | 253° |
| 2026-04-22 02:22 | 38.97984 | -112.62974 | 37950 ft | 437 kts | 253° |
| 2026-04-22 02:23 | 38.96785 | -112.70580 | 37956 ft | 435 kts | 253° |
| 2026-04-22 02:23 | 38.95581 | -112.78185 | 37950 ft | 437 kts | 252° |
| 2026-04-22 02:24 | 38.94371 | -112.85798 | 37957 ft | 436 kts | 252° |
| 2026-04-22 02:24 | 38.93156 | -112.93407 | 37946 ft | 435 kts | 252° |
| 2026-04-22 02:25 | 38.91944 | -113.00959 | 37944 ft | 437 kts | 252° |
| 2026-04-22 02:25 | 38.90711 | -113.08610 | 37943 ft | 437 kts | 252° |
| 2026-04-22 02:26 | 38.89483 | -113.16202 | 37951 ft | 437 kts | 252° |
| 2026-04-22 02:26 | 38.88240 | -113.23850 | 37941 ft | 436 kts | 253° |
| 2026-04-22 02:27 | 38.87002 | -113.31437 | 37953 ft | 437 kts | 252° |
| 2026-04-22 02:27 | 38.85762 | -113.39004 | 37965 ft | 436 kts | 252° |
| 2026-04-22 02:28 | 38.84504 | -113.46641 | 37980 ft | 437 kts | 253° |
| 2026-04-22 02:28 | 38.83252 | -113.54211 | 37993 ft | 437 kts | 253° |
| 2026-04-22 02:29 | 38.81989 | -113.61816 | 37989 ft | 438 kts | 253° |
| 2026-04-22 02:29 | 38.80725 | -113.69399 | 37997 ft | 436 kts | 252° |
| 2026-04-22 02:30 | 38.79460 | -113.76950 | 38002 ft | 437 kts | 252° |
| 2026-04-22 02:30 | 38.78184 | -113.84538 | 38006 ft | 437 kts | 252° |
| 2026-04-22 02:31 | 38.76897 | -113.92156 | 37982 ft | 438 kts | 252° |
| 2026-04-22 02:31 | 38.75613 | -113.99725 | 37981 ft | 437 kts | 252° |
| 2026-04-22 02:32 | 38.74316 | -114.07336 | 37978 ft | 439 kts | 252° |
| 2026-04-22 02:32 | 38.73013 | -114.14958 | 37981 ft | 438 kts | 252° |
| 2026-04-22 02:33 | 38.71711 | -114.22537 | 37964 ft | 437 kts | 252° |
| 2026-04-22 02:33 | 38.70412 | -114.30067 | 37987 ft | 438 kts | 252° |
| 2026-04-22 02:34 | 38.69102 | -114.37637 | 37967 ft | 436 kts | 252° |
| 2026-04-22 02:34 | 38.67782 | -114.45220 | 37980 ft | 438 kts | 252° |
| 2026-04-22 02:35 | 38.66461 | -114.52786 | 37939 ft | 440 kts | 252° |
| 2026-04-22 02:35 | 38.65129 | -114.60394 | 37956 ft | 435 kts | 252° |
| 2026-04-22 02:36 | 38.63800 | -114.67939 | 37965 ft | 437 kts | 252° |
| 2026-04-22 02:36 | 38.62473 | -114.75450 | 37964 ft | 433 kts | 252° |
| 2026-04-22 02:37 | 38.61126 | -114.83032 | 37973 ft | 437 kts | 252° |
| 2026-04-22 02:37 | 38.59792 | -114.90527 | 37954 ft | 436 kts | 252° |
| 2026-04-22 02:38 | 38.58440 | -114.98082 | 37939 ft | 436 kts | 252° |
| 2026-04-22 02:38 | 38.57093 | -115.05589 | 37949 ft | 435 kts | 252° |
| 2026-04-22 02:39 | 38.55732 | -115.13133 | 37938 ft | 437 kts | 252° |
| 2026-04-22 02:39 | 38.54373 | -115.20643 | 37938 ft | 436 kts | 252° |
| 2026-04-22 02:40 | 38.53006 | -115.28164 | 37932 ft | 435 kts | 252° |
| 2026-04-22 02:40 | 38.51627 | -115.35721 | 37942 ft | 440 kts | 252° |
| 2026-04-22 02:41 | 38.50256 | -115.43214 | 37929 ft | 434 kts | 252° |
| 2026-04-22 02:41 | 38.48864 | -115.50781 | 37929 ft | 437 kts | 252° |
| 2026-04-22 02:42 | 38.47489 | -115.58227 | 37930 ft | 437 kts | 252° |
| 2026-04-22 02:42 | 38.46092 | -115.65768 | 37927 ft | 436 kts | 251° |
| 2026-04-22 02:43 | 38.44700 | -115.73254 | 37909 ft | 435 kts | 251° |
| 2026-04-22 02:43 | 38.43299 | -115.80757 | 37918 ft | 434 kts | 251° |
| 2026-04-22 02:44 | 38.41901 | -115.88213 | 37920 ft | 436 kts | 251° |
| 2026-04-22 02:44 | 38.40496 | -115.95692 | 37903 ft | 432 kts | 251° |
| 2026-04-22 02:45 | 38.39082 | -116.03170 | 37914 ft | 436 kts | 252° |
| 2026-04-22 02:45 | 38.37669 | -116.10630 | 37914 ft | 433 kts | 251° |
| 2026-04-22 02:46 | 38.36251 | -116.18080 | 37915 ft | 434 kts | 252° |
| 2026-04-22 02:46 | 38.34824 | -116.25558 | 37912 ft | 433 kts | 252° |
| 2026-04-22 02:47 | 38.33399 | -116.32990 | 37914 ft | 434 kts | 252° |
| 2026-04-22 02:47 | 38.31792 | -116.40391 | 37906 ft | 432 kts | 250° |
| 2026-04-22 02:48 | 38.30131 | -116.47702 | 37894 ft | 432 kts | 250° |
| 2026-04-22 02:48 | 38.28471 | -116.55026 | 37891 ft | 431 kts | 250° |
| 2026-04-22 02:49 | 38.26811 | -116.62350 | 37895 ft | 431 kts | 251° |
| 2026-04-22 02:49 | 38.25151 | -116.69659 | 37904 ft | 433 kts | 250° |
| 2026-04-22 02:50 | 38.23493 | -116.76947 | 37916 ft | 428 kts | 250° |
| 2026-04-22 02:50 | 38.21826 | -116.84249 | 37897 ft | 431 kts | 250° |
| 2026-04-22 02:51 | 38.20153 | -116.91557 | 37904 ft | 429 kts | 251° |
| 2026-04-22 02:51 | 38.18492 | -116.98787 | 37906 ft | 430 kts | 251° |
| 2026-04-22 02:52 | 38.16822 | -117.06039 | 37882 ft | 429 kts | 251° |
| 2026-04-22 02:52 | 38.15155 | -117.13252 | 37890 ft | 428 kts | 251° |
| 2026-04-22 02:53 | 38.13470 | -117.20523 | 37878 ft | 428 kts | 251° |
| 2026-04-22 02:53 | 38.11794 | -117.27729 | 37886 ft | 431 kts | 251° |
| 2026-04-22 02:54 | 38.10107 | -117.35045 | 37918 ft | 431 kts | 251° |
| 2026-04-22 02:54 | 38.08431 | -117.42298 | 37843 ft | 431 kts | 251° |
| 2026-04-22 02:55 | 38.06735 | -117.49616 | 37861 ft | 432 kts | 251° |
| 2026-04-22 02:55 | 38.05039 | -117.56905 | 37856 ft | 430 kts | 251° |
| 2026-04-22 02:56 | 38.03342 | -117.64174 | 37874 ft | 432 kts | 252° |
| 2026-04-22 02:56 | 38.01630 | -117.71487 | 37880 ft | 432 kts | 251° |
| 2026-04-22 02:57 | 38.00135 | -117.78852 | 37904 ft | 437 kts | 258° |
| 2026-04-22 02:57 | 37.99330 | -117.86461 | 37894 ft | 434 kts | 260° |
| 2026-04-22 02:58 | 37.98539 | -117.94058 | 37854 ft | 439 kts | 259° |
| 2026-04-22 02:58 | 37.98136 | -117.97892 | 37607 ft | 438 kts | 259° |
| 2026-04-22 02:58 | 37.97738 | -118.01669 | 37416 ft | 434 kts | 260° |
| 2026-04-22 02:58 | 37.97339 | -118.05447 | 37221 ft | 431 kts | 259° |
| 2026-04-22 02:59 | 37.96939 | -118.09201 | 37040 ft | 437 kts | 260° |
| 2026-04-22 02:59 | 37.96531 | -118.13022 | 36861 ft | 435 kts | 259° |
| 2026-04-22 02:59 | 37.96129 | -118.16777 | 36671 ft | 434 kts | 260° |
| 2026-04-22 02:59 | 37.95721 | -118.20579 | 36473 ft | 435 kts | 259° |
| 2026-04-22 03:00 | 37.95316 | -118.24335 | 36294 ft | 435 kts | 259° |
| 2026-04-22 03:00 | 37.94909 | -118.28095 | 35930 ft | 435 kts | 260° |
| 2026-04-22 03:00 | 37.94495 | -118.31910 | 35715 ft | 434 kts | 260° |
| 2026-04-22 03:00 | 37.94084 | -118.35685 | 35568 ft | 436 kts | 260° |
| 2026-04-22 03:01 | 37.93672 | -118.39460 | 35431 ft | 432 kts | 260° |
| 2026-04-22 03:01 | 37.93263 | -118.43199 | 35210 ft | 433 kts | 260° |
| 2026-04-22 03:01 | 37.92849 | -118.46968 | 35025 ft | 433 kts | 260° |
| 2026-04-22 03:01 | 37.92433 | -118.50738 | 34825 ft | 432 kts | 260° |
| 2026-04-22 03:02 | 37.92021 | -118.54469 | 34618 ft | 433 kts | 261° |
| 2026-04-22 03:02 | 37.91185 | -118.62005 | 34407 ft | 427 kts | 260° |
| 2026-04-22 03:02 | 37.90774 | -118.65693 | 34185 ft | 426 kts | 259° |
| 2026-04-22 03:03 | 37.90353 | -118.69452 | 34004 ft | 431 kts | 260° |
| 2026-04-22 03:03 | 37.89933 | -118.73198 | 33842 ft | 428 kts | 260° |
| 2026-04-22 03:03 | 37.89516 | -118.76909 | 33667 ft | 427 kts | 260° |
| 2026-04-22 03:03 | 37.89098 | -118.80612 | 33499 ft | 431 kts | 260° |
| 2026-04-22 03:04 | 37.88674 | -118.84362 | 33353 ft | 430 kts | 260° |
| 2026-04-22 03:04 | 37.88252 | -118.88080 | 33162 ft | 425 kts | 260° |
| 2026-04-22 03:04 | 37.87832 | -118.91777 | 33042 ft | 427 kts | 261° |
| 2026-04-22 03:04 | 37.87410 | -118.95476 | 32860 ft | 424 kts | 260° |
| 2026-04-22 03:05 | 37.86987 | -118.99170 | 32726 ft | 430 kts | 260° |
| 2026-04-22 03:05 | 37.86556 | -119.02929 | 32585 ft | 427 kts | 260° |
| 2026-04-22 03:05 | 37.86131 | -119.06615 | 32414 ft | 426 kts | 260° |
| 2026-04-22 03:05 | 37.85706 | -119.10300 | 32264 ft | 427 kts | 261° |
| 2026-04-22 03:06 | 37.85275 | -119.14025 | 32092 ft | 425 kts | 260° |
| 2026-04-22 03:06 | 37.84847 | -119.17707 | 31927 ft | 428 kts | 260° |
| 2026-04-22 03:06 | 37.84413 | -119.21439 | 31783 ft | 430 kts | 260° |
| 2026-04-22 03:06 | 37.83977 | -119.25176 | 31631 ft | 425 kts | 261° |
| 2026-04-22 03:07 | 37.83554 | -119.28796 | 31463 ft | 412 kts | 261° |
| 2026-04-22 03:07 | 37.83141 | -119.32315 | 31306 ft | 399 kts | 261° |
| 2026-04-22 03:07 | 37.82739 | -119.35738 | 31157 ft | 388 kts | 261° |
| 2026-04-22 03:07 | 37.82341 | -119.39110 | 30997 ft | 394 kts | 261° |
| 2026-04-22 03:08 | 37.81938 | -119.42510 | 30842 ft | 396 kts | 261° |
| 2026-04-22 03:08 | 37.81529 | -119.45961 | 30653 ft | 394 kts | 260° |
| 2026-04-22 03:08 | 37.81126 | -119.49350 | 30503 ft | 390 kts | 261° |
| 2026-04-22 03:08 | 37.80727 | -119.52702 | 30357 ft | 385 kts | 261° |
| 2026-04-22 03:09 | 37.80329 | -119.56027 | 30184 ft | 384 kts | 261° |
| 2026-04-22 03:09 | 37.79930 | -119.59361 | 30012 ft | 385 kts | 260° |
| 2026-04-22 03:09 | 37.79530 | -119.62695 | 29850 ft | 385 kts | 260° |
| 2026-04-22 03:09 | 37.79127 | -119.66042 | 29682 ft | 383 kts | 260° |
| 2026-04-22 03:10 | 37.78729 | -119.69340 | 29546 ft | 381 kts | 260° |
| 2026-04-22 03:10 | 37.78330 | -119.72639 | 29437 ft | 381 kts | 260° |
| 2026-04-22 03:10 | 37.77932 | -119.75921 | 29313 ft | 379 kts | 260° |
| 2026-04-22 03:10 | 37.77534 | -119.79200 | 29180 ft | 377 kts | 260° |
| 2026-04-22 03:11 | 37.77131 | -119.82502 | 29043 ft | 379 kts | 259° |
| 2026-04-22 03:11 | 37.76734 | -119.85756 | 28904 ft | 378 kts | 259° |
| 2026-04-22 03:11 | 37.76334 | -119.89020 | 28774 ft | 379 kts | 259° |
| 2026-04-22 03:11 | 37.75926 | -119.92345 | 28634 ft | 380 kts | 259° |
| 2026-04-22 03:12 | 37.75528 | -119.95585 | 28498 ft | 379 kts | 259° |
| 2026-04-22 03:12 | 37.74716 | -120.02164 | 28217 ft | 381 kts | 259° |
| 2026-04-22 03:12 | 37.74305 | -120.05488 | 28071 ft | 379 kts | 259° |
| 2026-04-22 03:13 | 37.73901 | -120.08739 | 27906 ft | 377 kts | 259° |
| 2026-04-22 03:13 | 37.73498 | -120.11980 | 27748 ft | 377 kts | 258° |
| 2026-04-22 03:13 | 37.73092 | -120.15234 | 27533 ft | 375 kts | 259° |
| 2026-04-22 03:13 | 37.72687 | -120.18475 | 27364 ft | 373 kts | 259° |
| 2026-04-22 03:14 | 37.72282 | -120.21706 | 27217 ft | 374 kts | 259° |
| 2026-04-22 03:14 | 37.71874 | -120.24956 | 27024 ft | 374 kts | 258° |
| 2026-04-22 03:14 | 37.71462 | -120.28224 | 26711 ft | 378 kts | 258° |
| 2026-04-22 03:14 | 37.71057 | -120.31436 | 26350 ft | 373 kts | 259° |
| 2026-04-22 03:15 | 37.70650 | -120.34656 | 26055 ft | 369 kts | 259° |
| 2026-04-22 03:15 | 37.70249 | -120.37823 | 25751 ft | 372 kts | 258° |
| 2026-04-22 03:15 | 37.69838 | -120.41058 | 25387 ft | 374 kts | 258° |
| 2026-04-22 03:15 | 37.69456 | -120.44308 | 25038 ft | 368 kts | 259° |
| 2026-04-22 03:16 | 37.69096 | -120.47453 | 24712 ft | 361 kts | 259° |
| 2026-04-22 03:16 | 37.68739 | -120.50560 | 24416 ft | 357 kts | 258° |
| 2026-04-22 03:16 | 37.68384 | -120.53619 | 24085 ft | 353 kts | 258° |
| 2026-04-22 03:16 | 37.68030 | -120.56657 | 23746 ft | 350 kts | 258° |
| 2026-04-22 03:17 | 37.67675 | -120.59686 | 23373 ft | 346 kts | 258° |
| 2026-04-22 03:17 | 37.67328 | -120.62640 | 22960 ft | 344 kts | 259° |
| 2026-04-22 03:17 | 37.66977 | -120.65618 | 22544 ft | 346 kts | 258° |
| 2026-04-22 03:17 | 37.66621 | -120.68634 | 22109 ft | 348 kts | 258° |
| 2026-04-22 03:18 | 37.66267 | -120.71626 | 21674 ft | 346 kts | 258° |
| 2026-04-22 03:18 | 37.65911 | -120.74637 | 21233 ft | 343 kts | 258° |
| 2026-04-22 03:18 | 37.65562 | -120.77560 | 20801 ft | 341 kts | 258° |
| 2026-04-22 03:18 | 37.65209 | -120.80500 | 20362 ft | 339 kts | 258° |
| 2026-04-22 03:19 | 37.64855 | -120.83437 | 19928 ft | 340 kts | 258° |
| 2026-04-22 03:19 | 37.64498 | -120.86396 | 19487 ft | 341 kts | 258° |
| 2026-04-22 03:19 | 37.64142 | -120.89342 | 19043 ft | 340 kts | 258° |
| 2026-04-22 03:19 | 37.63785 | -120.92292 | 18604 ft | 339 kts | 258° |
| 2026-04-22 03:20 | 37.63429 | -120.95224 | 18145 ft | 339 kts | 258° |
| 2026-04-22 03:20 | 37.63064 | -120.98130 | 17685 ft | 336 kts | 257° |
| 2026-04-22 03:20 | 37.62680 | -121.00989 | 17231 ft | 333 kts | 258° |
| 2026-04-22 03:20 | 37.62296 | -121.03836 | 16777 ft | 330 kts | 258° |
| 2026-04-22 03:21 | 37.61914 | -121.06686 | 16332 ft | 327 kts | 258° |
| 2026-04-22 03:21 | 37.61539 | -121.09484 | 15919 ft | 324 kts | 258° |
| 2026-04-22 03:21 | 37.61165 | -121.12273 | 15514 ft | 322 kts | 258° |
| 2026-04-22 03:21 | 37.60794 | -121.15041 | 15102 ft | 321 kts | 258° |
| 2026-04-22 03:22 | 37.60422 | -121.17799 | 14702 ft | 320 kts | 258° |
| 2026-04-22 03:22 | 37.60049 | -121.20575 | 14331 ft | 318 kts | 259° |
| 2026-04-22 03:22 | 37.59684 | -121.23283 | 13980 ft | 315 kts | 259° |
| 2026-04-22 03:22 | 37.59317 | -121.25996 | 13641 ft | 316 kts | 259° |
| 2026-04-22 03:23 | 37.58972 | -121.28730 | 13303 ft | 316 kts | 261° |
| 2026-04-22 03:23 | 37.58669 | -121.31453 | 12962 ft | 313 kts | 261° |
| 2026-04-22 03:23 | 37.58368 | -121.34147 | 12630 ft | 307 kts | 261° |
| 2026-04-22 03:23 | 37.58069 | -121.36778 | 12294 ft | 302 kts | 261° |
| 2026-04-22 03:24 | 37.57770 | -121.39375 | 11959 ft | 297 kts | 261° |
| 2026-04-22 03:24 | 37.57480 | -121.41894 | 11658 ft | 292 kts | 261° |
| 2026-04-22 03:24 | 37.57188 | -121.44417 | 11375 ft | 286 kts | 261° |
| 2026-04-22 03:24 | 37.56905 | -121.46858 | 11096 ft | 280 kts | 261° |
| 2026-04-22 03:25 | 37.56627 | -121.49249 | 10841 ft | 274 kts | 261° |
| 2026-04-22 03:25 | 37.56352 | -121.51613 | 10582 ft | 269 kts | 261° |
| 2026-04-22 03:25 | 37.56083 | -121.53912 | 10338 ft | 267 kts | 261° |
| 2026-04-22 03:25 | 37.55813 | -121.56222 | 10104 ft | 267 kts | 261° |
| 2026-04-22 03:26 | 37.55542 | -121.58538 | 9824 ft | 266 kts | 261° |
| 2026-04-22 03:26 | 37.55270 | -121.60858 | 9561 ft | 266 kts | 261° |
| 2026-04-22 03:26 | 37.54918 | -121.63128 | 9285 ft | 264 kts | 254° |
| 2026-04-22 03:26 | 37.54398 | -121.65345 | 9029 ft | 263 kts | 253° |
| 2026-04-22 03:27 | 37.53872 | -121.67544 | 8774 ft | 262 kts | 253° |
| 2026-04-22 03:27 | 37.53351 | -121.69725 | 8527 ft | 257 kts | 253° |
| 2026-04-22 03:27 | 37.52835 | -121.71884 | 8287 ft | 252 kts | 253° |
| 2026-04-22 03:27 | 37.52340 | -121.73955 | 8086 ft | 246 kts | 253° |
| 2026-04-22 03:28 | 37.51852 | -121.75998 | 7892 ft | 240 kts | 253° |
| 2026-04-22 03:28 | 37.51373 | -121.78000 | 7720 ft | 235 kts | 253° |
| 2026-04-22 03:28 | 37.50897 | -121.79984 | 7530 ft | 237 kts | 253° |
| 2026-04-22 03:28 | 37.50423 | -121.81961 | 7330 ft | 236 kts | 253° |
| 2026-04-22 03:29 | 37.49949 | -121.83935 | 7131 ft | 235 kts | 253° |
| 2026-04-22 03:29 | 37.49480 | -121.85890 | 6934 ft | 236 kts | 253° |
| 2026-04-22 03:29 | 37.49155 | -121.87912 | 6721 ft | 233 kts | 269° |
| 2026-04-22 03:29 | 37.49219 | -121.89929 | 6529 ft | 234 kts | 272° |
| 2026-04-22 03:30 | 37.49336 | -121.91970 | 6324 ft | 230 kts | 273° |
| 2026-04-22 03:30 | 37.49454 | -121.93966 | 6124 ft | 225 kts | 273° |
| 2026-04-22 03:30 | 37.49567 | -121.95890 | 5929 ft | 222 kts | 273° |
| 2026-04-22 03:30 | 37.49678 | -121.97818 | 5728 ft | 218 kts | 273° |
| 2026-04-22 03:31 | 37.49788 | -121.99713 | 5528 ft | 214 kts | 273° |
| 2026-04-22 03:31 | 37.49893 | -122.01557 | 5331 ft | 211 kts | 273° |
| 2026-04-22 03:31 | 37.49999 | -122.03393 | 5139 ft | 206 kts | 273° |
| 2026-04-22 03:31 | 37.50099 | -122.05165 | 4939 ft | 202 kts | 273° |
| 2026-04-22 03:32 | 37.50149 | -122.06911 | 4738 ft | 197 kts | 267° |
| 2026-04-22 03:32 | 37.50181 | -122.08614 | 4534 ft | 194 kts | 279° |
| 2026-04-22 03:32 | 37.50570 | -122.10222 | 4328 ft | 190 kts | 291° |
| 2026-04-22 03:32 | 37.51131 | -122.11712 | 4135 ft | 184 kts | 295° |
| 2026-04-22 03:33 | 37.51722 | -122.13100 | 3979 ft | 175 kts | 296° |
| 2026-04-22 03:33 | 37.52298 | -122.14410 | 3764 ft | 169 kts | 296° |
| 2026-04-22 03:33 | 37.52858 | -122.15692 | 3552 ft | 165 kts | 296° |
| 2026-04-22 03:33 | 37.53400 | -122.16957 | 3342 ft | 160 kts | 296° |
| 2026-04-22 03:34 | 37.53920 | -122.18175 | 3140 ft | 157 kts | 295° |
| 2026-04-22 03:34 | 37.54422 | -122.19356 | 2941 ft | 148 kts | 296° |
| 2026-04-22 03:34 | 37.54895 | -122.20469 | 2758 ft | 141 kts | 296° |
| 2026-04-22 03:34 | 37.55352 | -122.21544 | 2574 ft | 139 kts | 296° |
| 2026-04-22 03:35 | 37.55808 | -122.22621 | 2389 ft | 140 kts | 296° |
| 2026-04-22 03:35 | 37.56261 | -122.23689 | 2203 ft | 138 kts | 296° |
| 2026-04-22 03:35 | 37.56714 | -122.24759 | 2016 ft | 138 kts | 296° |
| 2026-04-22 03:35 | 37.57170 | -122.25835 | 1823 ft | 139 kts | 296° |
| 2026-04-22 03:36 | 37.57630 | -122.26923 | 1629 ft | 139 kts | 296° |
| 2026-04-22 03:36 | 37.58083 | -122.27994 | 1441 ft | 139 kts | 296° |
| 2026-04-22 03:36 | 37.58538 | -122.29068 | 1244 ft | 140 kts | 296° |
| 2026-04-22 03:36 | 37.58997 | -122.30152 | 1041 ft | 140 kts | 296° |
| 2026-04-22 03:37 | 37.59459 | -122.31242 | 852 ft | 141 kts | 296° |
| 2026-04-22 03:37 | 37.59914 | -122.32331 | 676 ft | 141 kts | 296° |
| 2026-04-22 03:37 | 37.60376 | -122.33424 | 494 ft | 142 kts | 296° |
| 2026-04-22 03:37 | 37.60855 | -122.34528 | 274 ft | 142 kts | 296° |
| 2026-04-22 03:38 | 37.61309 | -122.35615 | 89 ft | 140 kts | 295° |
| 2026-04-22 03:38 | 37.61756 | -122.36671 | 28 ft | 132 kts | 296° |
| 2026-04-22 03:38 | 37.62167 | -122.37661 | 32 ft | 120 kts | 297° |
| 2026-04-22 03:38 | 37.62415 | -122.38254 | 33 ft | 57 kts | 297° |
| 2026-04-22 03:39 | 37.62539 | -122.38538 | 31 ft | 38 kts | 298° |
| 2026-04-22 03:39 | 37.62651 | -122.38811 | 29 ft | 25 kts | 297° |
| 2026-04-22 03:39 | 37.62713 | -122.38981 | 27 ft | 17 kts | 277° |
| 2026-04-22 03:39 | 37.62697 | -122.39038 | 28 ft | 6 kts | 227° |
| 2026-04-22 03:40 | 37.62660 | -122.39068 | 28 ft | 6 kts | 208° |
| 2026-04-22 03:40 | 37.62648 | -122.39076 | 29 ft | 0 kts | 208° |
| 2026-04-22 03:40 | 37.62640 | -122.39081 | 29 ft | 5 kts | 208° |
| 2026-04-22 03:41 | 37.62580 | -122.39120 | 30 ft | 12 kts | 208° |
| 2026-04-22 03:41 | 37.62495 | -122.39173 | 32 ft | 13 kts | 188° |
| 2026-04-22 03:41 | 37.62425 | -122.39119 | 34 ft | 11 kts | 122° |
| 2026-04-22 03:41 | 37.62387 | -122.39028 | 34 ft | 11 kts | 117° |
| 2026-04-22 03:42 | 37.62360 | -122.38966 | 34 ft | 5 kts | 134° |
| 2026-04-22 03:42 | 37.62323 | -122.38963 | 35 ft | 7 kts | 197° |
| 2026-04-22 03:42 | 37.62276 | -122.38992 | 36 ft | 8 kts | 210° |
| 2026-04-22 03:42 | 37.62237 | -122.39050 | 37 ft | 9 kts | 250° |
| 2026-04-22 03:43 | 37.62197 | -122.39123 | 37 ft | 11 kts | 213° |
| 2026-04-22 03:43 | 37.62132 | -122.39168 | 38 ft | 10 kts | 208° |
| 2026-04-22 03:43 | 37.62065 | -122.39211 | 38 ft | 10 kts | 208° |
| 2026-04-22 03:43 | 37.61996 | -122.39237 | 38 ft | 10 kts | 168° |
| 2026-04-22 03:44 | 37.61952 | -122.39184 | 38 ft | 2 kts | 117° |
| 2026-04-22 03:44 | 37.61936 | -122.39153 | 38 ft | 5 kts | 137° |
| 2026-04-22 03:44 | 37.61906 | -122.39152 | 38 ft | 4 kts | 205° |
| 2026-04-22 03:44 | 37.61881 | -122.39168 | 38 ft | 0 kts | 208° |
| 2026-04-22 03:45 | 37.61872 | -122.39174 | 38 ft | 0 kts | 208° |